Time;durP1;ratioP1;P1;durP2;ratioP2;P2;SDS_P1;SDS_P2;PMS_P1;PMS_P2;Temp;Humidity;BMP_temperature;BMP_pressure;BME280_temperature;BME280_humidity;BME280_pressure;Samples;Min_cycle;Max_cycle;Signal;HPM_P1;HPM_P2
2022/07/18 00:00:21;;;;;;;2.10;1.60;;;15.40;61.20;;;;;;5113044;28;20200;-75
2022/07/18 00:02:48;;;;;;;3.17;1.67;;;15.10;64.20;;;;;;5113507;28;20240;-75
2022/07/18 00:05:14;;;;;;;2.23;1.60;;;15.00;65.30;;;;;;5113227;28;20203;-75
2022/07/18 00:07:42;;;;;;;3.10;1.73;;;14.80;66.60;;;;;;5113114;28;20249;-75
2022/07/18 00:10:09;;;;;;;5.10;1.80;;;14.70;72.90;;;;;;5113055;28;20245;-75
2022/07/18 00:12:36;;;;;;;2.03;1.60;;;14.60;76.60;;;;;;5113023;28;20191;-74
2022/07/18 00:15:03;;;;;;;2.43;1.70;;;14.60;81.00;;;;;;5113028;28;20281;-75
2022/07/18 00:17:30;;;;;;;2.53;1.80;;;14.60;83.30;;;;;;5113474;28;20245;-75
2022/07/18 00:19:56;;;;;;;3.03;1.80;;;14.60;82.30;;;;;;5112967;28;20192;-75
2022/07/18 00:22:23;;;;;;;3.23;2.03;;;14.50;87.40;;;;;;5113024;28;20241;-75
2022/07/18 00:24:51;;;;;;;2.70;2.00;;;14.30;91.30;;;;;;5112904;28;20258;-75
2022/07/18 00:27:18;;;;;;;2.33;1.90;;;14.10;95.00;;;;;;5112896;28;20597;-75
2022/07/18 00:29:44;;;;;;;4.03;2.03;;;14.10;97.50;;;;;;5113107;28;20229;-75
2022/07/18 00:32:11;;;;;;;3.83;1.70;;;14.10;98.20;;;;;;5113422;28;20191;-75
2022/07/18 00:34:38;;;;;;;2.57;1.73;;;14.10;97.30;;;;;;5113061;28;20288;-75
2022/07/18 00:37:05;;;;;;;5.03;2.10;;;13.90;98.10;;;;;;5112884;28;20256;-75
2022/07/18 00:39:32;;;;;;;7.43;2.20;;;13.90;99.20;;;;;;5112677;28;20268;-75
2022/07/18 00:42:00;;;;;;;2.87;2.17;;;13.80;99.30;;;;;;5115694;28;20195;-75
2022/07/18 00:44:28;;;;;;;2.93;1.90;;;13.70;99.80;;;;;;5116783;28;20253;-74
2022/07/18 00:46:56;;;;;;;2.90;1.80;;;13.60;99.90;;;;;;5116620;28;20272;-75
2022/07/18 00:49:23;;;;;;;2.63;2.00;;;13.40;99.90;;;;;;5116618;28;20199;-75
2022/07/18 00:51:50;;;;;;;6.57;2.03;;;13.30;99.90;;;;;;5116436;28;20241;-74
2022/07/18 00:54:17;;;;;;;5.73;2.40;;;13.20;99.90;;;;;;5116287;28;20215;-74
2022/07/18 00:56:45;;;;;;;4.53;2.10;;;13.40;99.90;;;;;;5116709;28;20227;-74
2022/07/18 00:59:13;;;;;;;5.20;2.20;;;13.40;99.90;;;;;;5116474;28;20191;-74
2022/07/18 01:01:42;;;;;;;4.73;2.60;;;13.30;99.90;;;;;;5116333;28;20241;-74
2022/07/18 01:04:10;;;;;;;5.57;2.20;;;13.20;99.90;;;;;;5116286;28;20222;-74
2022/07/18 01:06:37;;;;;;;4.23;2.00;;;13.10;99.90;;;;;;5116136;28;20736;-74
2022/07/18 01:09:03;;;;;;;9.83;2.30;;;13.10;99.90;;;;;;5116076;28;20192;-74
2022/07/18 01:11:30;;;;;;;3.23;2.17;;;13.00;99.90;;;;;;5116023;28;20577;-74
2022/07/18 01:13:57;;;;;;;5.27;2.10;;;13.00;99.90;;;;;;5116050;28;20215;-74
2022/07/18 01:16:25;;;;;;;4.20;1.93;;;13.20;99.90;;;;;;5116015;28;20195;-74
2022/07/18 01:18:52;;;;;;;3.07;1.90;;;13.40;99.90;;;;;;5115953;28;20260;-74
2022/07/18 01:21:20;;;;;;;3.93;2.10;;;13.40;99.90;;;;;;5115861;28;20643;-74
2022/07/18 01:23:47;;;;;;;3.13;2.20;;;13.40;99.90;;;;;;5115761;28;20651;-74
2022/07/18 01:26:15;;;;;;;3.90;2.23;;;13.40;99.90;;;;;;5115901;28;20191;-74
2022/07/18 01:28:42;;;;;;;2.67;2.00;;;13.50;99.90;;;;;;5115649;28;20650;-76
2022/07/18 01:31:09;;;;;;;4.20;2.40;;;13.50;99.90;;;;;;5115751;28;20253;-74
2022/07/18 01:33:36;;;;;;;2.70;2.00;;;13.60;99.90;;;;;;5115494;28;20622;-74
2022/07/18 01:36:04;;;;;;;1.93;1.80;;;13.50;99.90;;;;;;5115565;28;20195;-74
2022/07/18 01:38:33;;;;;;;3.43;1.90;;;13.40;99.90;;;;;;5115585;28;20231;-74
2022/07/18 01:41:00;;;;;;;2.53;1.80;;;13.40;99.90;;;;;;5115554;28;20199;-75
2022/07/18 01:43:28;;;;;;;6.67;2.40;;;13.40;99.90;;;;;;5115598;28;20197;-75
2022/07/18 01:45:55;;;;;;;3.13;1.77;;;13.50;99.90;;;;;;5115529;28;20229;-75
2022/07/18 01:48:23;;;;;;;3.30;2.20;;;13.40;99.90;;;;;;5115470;28;20195;-75
2022/07/18 01:50:50;;;;;;;3.80;2.00;;;13.40;99.90;;;;;;5115016;28;20597;-75
2022/07/18 01:53:17;;;;;;;4.30;2.30;;;13.40;99.90;;;;;;5114943;28;20589;-74
2022/07/18 01:55:45;;;;;;;2.67;1.90;;;13.30;99.90;;;;;;5115154;28;20690;-75
2022/07/18 01:58:12;;;;;;;3.23;1.80;;;13.20;99.90;;;;;;5115056;28;20199;-74
2022/07/18 02:00:38;;;;;;;3.83;1.80;;;13.20;99.90;;;;;;5115060;28;20257;-75
2022/07/18 02:03:05;;;;;;;3.00;1.57;;;13.20;99.90;;;;;;5114975;28;20199;-74
2022/07/18 02:05:32;;;;;;;4.30;1.80;;;13.10;99.90;;;;;;5114892;28;20203;-74
2022/07/18 02:07:59;;;;;;;2.33;1.70;;;13.00;99.90;;;;;;5114910;28;20200;-75
2022/07/18 02:10:25;;;;;;;3.73;1.97;;;13.00;99.90;;;;;;5114953;28;20203;-75
2022/07/18 02:12:53;;;;;;;5.13;2.03;;;12.90;99.90;;;;;;5115025;28;20191;-74
2022/07/18 02:15:20;;;;;;;4.67;2.40;;;12.80;99.90;;;;;;5114770;28;20223;-74
2022/07/18 02:17:46;;;;;;;2.57;2.00;;;12.60;99.90;;;;;;5114647;28;20703;-75
2022/07/18 02:20:15;;;;;;;3.90;2.10;;;12.60;99.90;;;;;;5114691;28;20647;-74
2022/07/18 02:22:42;;;;;;;7.77;2.73;;;12.50;99.90;;;;;;5114934;28;20207;-74
2022/07/18 02:25:09;;;;;;;2.40;2.00;;;12.40;99.90;;;;;;5114600;28;20719;-74
2022/07/18 02:27:36;;;;;;;3.73;1.90;;;12.50;99.90;;;;;;5114720;28;20204;-74
2022/07/18 02:30:05;;;;;;;5.83;2.37;;;12.60;99.90;;;;;;5114612;28;20261;-74
2022/07/18 02:32:32;;;;;;;5.47;2.00;;;12.60;99.90;;;;;;5114395;28;20196;-75
2022/07/18 02:34:59;;;;;;;2.80;2.20;;;12.50;99.90;;;;;;5114555;28;20220;-74
2022/07/18 02:37:25;;;;;;;5.80;2.27;;;12.60;99.90;;;;;;5114294;28;20562;-75
2022/07/18 02:39:52;;;;;;;3.30;2.10;;;12.60;99.90;;;;;;5114166;28;20223;-75
2022/07/18 02:42:19;;;;;;;3.70;2.23;;;12.50;99.90;;;;;;5114277;28;20200;-74
2022/07/18 02:44:46;;;;;;;3.80;2.20;;;12.40;99.90;;;;;;5114251;28;20607;-75
2022/07/18 02:47:14;;;;;;;4.00;2.30;;;12.20;99.90;;;;;;5114570;28;20214;-75
2022/07/18 02:49:40;;;;;;;3.43;2.20;;;12.10;99.90;;;;;;5114102;28;20712;-74
2022/07/18 02:52:09;;;;;;;3.83;2.13;;;11.90;99.90;;;;;;5114491;28;20245;-75
2022/07/18 02:54:37;;;;;;;3.93;2.37;;;11.80;99.90;;;;;;5114164;28;20314;-75
2022/07/18 02:57:05;;;;;;;4.47;2.27;;;11.80;99.90;;;;;;5114143;28;20203;-75
2022/07/18 02:59:32;;;;;;;4.17;2.20;;;11.80;99.90;;;;;;5113876;28;20222;-74
2022/07/18 03:01:59;;;;;;;3.77;2.57;;;11.90;99.90;;;;;;5114100;28;20200;-75
2022/07/18 03:04:27;;;;;;;3.37;2.10;;;12.10;99.90;;;;;;5113286;28;20269;-75
2022/07/18 03:06:53;;;;;;;4.83;2.23;;;12.10;99.90;;;;;;5114135;28;20226;-75
2022/07/18 03:09:20;;;;;;;7.87;2.20;;;12.10;99.90;;;;;;5113659;28;20249;-75
2022/07/18 03:11:47;;;;;;;4.87;2.43;;;11.90;99.90;;;;;;5113725;28;20199;-74
2022/07/18 03:14:14;;;;;;;2.80;2.20;;;11.90;99.90;;;;;;5113587;28;20196;-74
2022/07/18 03:16:41;;;;;;;4.17;2.67;;;11.90;99.90;;;;;;5113584;28;20638;-75
2022/07/18 03:19:07;;;;;;;3.90;2.40;;;12.00;99.90;;;;;;5113705;28;20196;-74
2022/07/18 03:21:35;;;;;;;3.43;2.60;;;11.90;99.90;;;;;;5113703;28;20239;-74
2022/07/18 03:24:02;;;;;;;4.60;2.43;;;12.00;99.90;;;;;;5113539;28;20192;-74
2022/07/18 03:26:29;;;;;;;3.53;2.00;;;11.90;99.90;;;;;;5113528;28;20244;-74
2022/07/18 03:28:55;;;;;;;3.97;2.40;;;11.90;99.90;;;;;;5113722;28;20245;-74
2022/07/18 03:31:22;;;;;;;4.20;2.23;;;12.00;99.90;;;;;;5113532;28;20196;-74
2022/07/18 03:33:49;;;;;;;3.13;2.50;;;12.00;99.90;;;;;;5113514;28;20196;-74
2022/07/18 03:36:15;;;;;;;2.90;2.40;;;12.10;99.90;;;;;;5113244;28;20759;-74
2022/07/18 03:38:43;;;;;;;3.83;2.30;;;12.10;99.90;;;;;;5113317;28;20231;-74
2022/07/18 03:41:10;;;;;;;6.93;2.50;;;12.00;99.90;;;;;;5113143;28;20640;-74
2022/07/18 03:43:38;;;;;;;5.07;2.70;;;11.90;99.90;;;;;;5113504;28;20231;-74
2022/07/18 03:46:04;;;;;;;5.07;2.70;;;11.80;99.90;;;;;;5113345;28;20203;-75
2022/07/18 03:48:31;;;;;;;4.87;2.77;;;11.80;99.90;;;;;;5113357;28;20245;-74
2022/07/18 03:50:58;;;;;;;8.87;3.10;;;11.80;99.90;;;;;;5113216;28;20199;-74
2022/07/18 03:53:24;;;;;;;2.93;2.60;;;11.80;99.90;;;;;;5113115;28;20261;-74
2022/07/18 03:55:52;;;;;;;7.37;2.70;;;11.70;99.90;;;;;;5112949;28;20231;-74
2022/07/18 03:58:19;;;;;;;4.50;2.67;;;11.70;99.90;;;;;;5113281;28;20256;-74
2022/07/18 04:00:45;;;;;;;4.93;2.60;;;11.70;99.90;;;;;;5113591;28;20199;-74
2022/07/18 04:03:12;;;;;;;6.33;3.00;;;11.60;99.90;;;;;;5113144;28;20719;-74
2022/07/18 04:05:39;;;;;;;6.10;2.60;;;11.80;99.90;;;;;;5113085;28;20196;-74
2022/07/18 04:08:06;;;;;;;4.77;2.70;;;11.80;99.90;;;;;;5113005;28;20200;-74
2022/07/18 04:10:32;;;;;;;4.20;2.77;;;11.80;99.90;;;;;;5113190;28;20196;-74
2022/07/18 04:13:00;;;;;;;4.23;2.60;;;11.80;99.90;;;;;;5113217;28;20237;-74
2022/07/18 04:15:27;;;;;;;5.87;2.93;;;11.80;99.90;;;;;;5115104;28;20563;-74
2022/07/18 04:17:54;;;;;;;4.70;2.53;;;11.80;99.90;;;;;;5117148;28;20203;-74
2022/07/18 04:20:21;;;;;;;4.70;2.50;;;11.90;99.90;;;;;;5116999;28;20199;-74
2022/07/18 04:22:50;;;;;;;4.63;2.50;;;12.00;99.90;;;;;;5116879;28;20527;-74
2022/07/18 04:25:17;;;;;;;3.77;2.43;;;12.10;99.90;;;;;;5117161;28;20195;-74
2022/07/18 04:27:44;;;;;;;6.33;2.47;;;12.20;99.90;;;;;;5117083;28;20195;-74
2022/07/18 04:30:13;;;;;;;3.27;2.40;;;12.30;99.90;;;;;;5116731;28;20196;-74
2022/07/18 04:32:40;;;;;;;6.73;2.87;;;12.50;99.90;;;;;;5116839;28;20260;-74
2022/07/18 04:35:08;;;;;;;7.53;2.80;;;12.70;99.90;;;;;;5116759;28;20284;-73
2022/07/18 04:37:35;;;;;;;4.33;2.43;;;12.90;99.90;;;;;;5116585;28;20204;-75
2022/07/18 04:40:03;;;;;;;4.63;2.80;;;13.00;99.90;;;;;;5116611;28;20223;-75
2022/07/18 04:42:31;;;;;;;9.33;6.07;;;13.10;99.90;;;;;;5116499;28;20200;-74
2022/07/18 04:44:57;;;;;;;6.40;3.60;;;13.10;99.90;;;;;;5116583;28;20200;-76
2022/07/18 04:47:25;;;;;;;5.90;3.60;;;13.10;99.90;;;;;;5116512;28;20196;-74
2022/07/18 04:49:52;;;;;;;5.50;3.80;;;13.20;99.90;;;;;;5116278;28;20601;-74
2022/07/18 04:52:19;;;;;;;5.67;3.53;;;13.30;99.90;;;;;;5116516;28;20195;-76
2022/07/18 04:54:46;;;;;;;6.30;3.67;;;13.40;99.90;;;;;;5116314;28;20721;-74
2022/07/18 04:57:14;;;;;;;4.57;3.07;;;13.50;99.90;;;;;;5116343;28;20232;-76
2022/07/18 04:59:41;;;;;;;4.17;2.90;;;13.60;99.90;;;;;;5116294;28;20196;-76
2022/07/18 05:02:07;;;;;;;3.70;2.70;;;13.70;99.90;;;;;;5116137;28;20207;-76
2022/07/18 05:04:35;;;;;;;6.07;2.90;;;13.90;99.90;;;;;;5116248;28;20253;-76
2022/07/18 05:07:02;;;;;;;5.80;3.00;;;13.90;99.90;;;;;;5116352;28;20272;-75
2022/07/18 05:09:29;;;;;;;4.80;2.90;;;14.00;99.90;;;;;;5116151;28;20200;-76
2022/07/18 05:11:56;;;;;;;5.07;2.90;;;14.10;99.90;;;;;;5116147;28;20277;-76
2022/07/18 05:14:22;;;;;;;8.47;3.13;;;14.20;99.90;;;;;;5115957;28;20647;-76
2022/07/18 05:16:50;;;;;;;5.87;2.50;;;14.30;99.90;;;;;;5115783;28;20228;-76
2022/07/18 05:19:17;;;;;;;2.47;2.27;;;14.50;99.90;;;;;;5116369;28;20196;-76
2022/07/18 05:21:45;;;;;;;3.60;2.70;;;14.60;99.90;;;;;;5116039;28;20195;-75
2022/07/18 05:24:13;;;;;;;3.80;2.43;;;14.80;99.90;;;;;;5115768;28;20222;-76
2022/07/18 05:26:39;;;;;;;4.70;2.70;;;14.90;99.90;;;;;;5114788;28;20202;-76
2022/07/18 05:29:06;;;;;;;5.23;2.40;;;15.00;99.90;;;;;;5115813;28;20214;-76
2022/07/18 05:31:33;;;;;;;4.33;2.73;;;15.10;99.90;;;;;;5115681;28;20244;-75
2022/07/18 05:33:59;;;;;;;4.10;2.80;;;15.20;99.90;;;;;;5115580;28;20545;-76
2022/07/18 05:36:26;;;;;;;8.07;2.63;;;15.40;99.90;;;;;;5115524;28;20227;-76
2022/07/18 05:38:54;;;;;;;5.60;3.17;;;15.50;99.90;;;;;;5115292;28;20228;-76
2022/07/18 05:41:20;;;;;;;5.50;3.08;;;15.50;99.90;;;;;;5115341;28;20339;-76
2022/07/18 05:43:47;;;;;;;4.72;3.10;;;15.70;99.90;;;;;;5115624;28;20200;-76
2022/07/18 05:46:14;;;;;;;7.32;2.92;;;15.80;98.90;;;;;;5115483;28;20196;-76
2022/07/18 05:48:41;;;;;;;5.68;2.60;;;16.00;96.70;;;;;;5115497;28;20195;-75
2022/07/18 05:51:08;;;;;;;5.57;2.88;;;16.10;95.70;;;;;;5115385;28;20210;-76
2022/07/18 05:53:34;;;;;;;2.88;2.58;;;16.20;96.10;;;;;;5115341;28;20257;-76
2022/07/18 05:56:02;;;;;;;5.50;2.60;;;16.40;94.50;;;;;;5115024;28;20744;-76
2022/07/18 05:58:29;;;;;;;5.00;2.75;;;16.50;95.00;;;;;;5114887;28;20665;-76
2022/07/18 06:00:56;;;;;;;3.80;2.55;;;16.70;93.40;;;;;;5115371;28;20264;-76
2022/07/18 06:03:22;;;;;;;6.65;2.85;;;16.80;91.20;;;;;;5114964;28;20662;-76
2022/07/18 06:05:49;;;;;;;6.05;2.58;;;17.00;90.40;;;;;;5115115;28;20195;-77
2022/07/18 06:08:16;;;;;;;4.20;2.53;;;17.00;86.30;;;;;;5115029;28;20200;-76
2022/07/18 06:10:42;;;;;;;5.20;2.80;;;17.20;84.70;;;;;;5114791;28;20650;-76
2022/07/18 06:13:10;;;;;;;5.90;2.70;;;17.30;84.90;;;;;;5114750;28;20199;-76
2022/07/18 06:15:37;;;;;;;4.97;2.78;;;17.50;83.90;;;;;;5114912;28;20686;-76
2022/07/18 06:18:04;;;;;;;5.32;2.75;;;17.60;86.90;;;;;;5114902;28;20270;-76
2022/07/18 06:20:31;;;;;;;4.72;2.88;;;17.80;89.90;;;;;;5114696;28;20203;-76
2022/07/18 06:22:57;;;;;;;5.00;2.50;;;17.90;88.00;;;;;;5114828;28;20325;-76
2022/07/18 06:25:24;;;;;;;5.32;2.75;;;18.10;89.30;;;;;;5114815;28;20276;-76
2022/07/18 06:27:50;;;;;;;4.70;2.60;;;18.20;90.00;;;;;;5114475;28;20275;-76
2022/07/18 06:30:18;;;;;;;3.90;2.75;;;18.30;78.50;;;;;;5114807;28;20199;-76
2022/07/18 06:32:45;;;;;;;5.10;2.50;;;18.40;78.30;;;;;;5114587;28;20241;-76
2022/07/18 06:35:12;;;;;;;3.28;2.83;;;18.50;78.00;;;;;;5114464;28;20245;-76
2022/07/18 06:37:38;;;;;;;3.40;2.80;;;18.70;73.90;;;;;;5114471;28;20654;-77
2022/07/18 06:40:06;;;;;;;4.80;2.88;;;18.80;72.60;;;;;;5114640;28;20255;-77
2022/07/18 06:42:34;;;;;;;3.65;2.70;;;18.90;73.90;;;;;;5115554;27;20196;-76
2022/07/18 06:45:01;;;;;;;4.07;2.42;;;19.10;72.30;;;;;;5114424;28;20261;-76
2022/07/18 06:47:29;;;;;;;5.97;2.70;;;19.20;73.80;;;;;;5114426;28;20719;-76
2022/07/18 06:49:55;;;;;;;5.75;2.78;;;19.30;75.40;;;;;;5114276;28;20252;-75
2022/07/18 06:52:22;;;;;;;4.32;2.60;;;19.50;74.00;;;;;;5113954;27;20196;-75
2022/07/18 06:54:48;;;;;;;6.93;2.72;;;19.70;71.10;;;;;;5114047;28;20195;-75
2022/07/18 06:57:15;;;;;;;7.88;3.00;;;19.80;69.10;;;;;;5114180;28;20252;-75
2022/07/18 06:59:42;;;;;;;7.63;2.92;;;19.90;63.90;;;;;;5114036;28;20600;-75
2022/07/18 07:02:09;;;;;;;4.10;2.70;;;20.10;67.40;;;;;;5114061;28;20240;-75
2022/07/18 07:04:36;;;;;;;7.28;3.22;;;20.20;61.30;;;;;;5114024;28;20240;-75
2022/07/18 07:07:03;;;;;;;8.73;3.08;;;20.40;58.20;;;;;;5113887;28;20647;-76
2022/07/18 07:09:30;;;;;;;6.50;3.22;;;20.50;59.60;;;;;;5113699;28;20195;-75
2022/07/18 07:11:56;;;;;;;6.53;3.30;;;20.60;57.30;;;;;;5113849;28;20720;-75
2022/07/18 07:14:23;;;;;;;11.40;3.58;;;20.80;56.10;;;;;;5113876;28;20196;-75
2022/07/18 07:16:49;;;;;;;7.15;3.45;;;20.90;54.30;;;;;;5113907;28;20371;-76
2022/07/18 07:19:17;;;;;;;10.40;3.22;;;21.00;50.00;;;;;;5107330;28;20525;-75
2022/07/18 07:21:45;;;;;;;6.38;3.30;;;21.20;50.10;;;;;;5081762;28;20250;-76
2022/07/18 07:24:11;;;;;;;7.22;3.05;;;21.30;51.00;;;;;;5111904;28;20563;-75
2022/07/18 07:26:38;;;;;;;4.38;2.75;;;21.40;50.20;;;;;;5113351;28;20277;-76
2022/07/18 07:29:05;;;;;;;3.15;2.33;;;21.50;49.10;;;;;;5113325;28;20200;-76
2022/07/18 07:31:31;;;;;;;4.85;2.38;;;21.70;47.50;;;;;;5113168;27;20244;-75
2022/07/18 07:33:58;;;;;;;5.75;2.08;;;21.80;45.10;;;;;;5113241;28;20658;-76
2022/07/18 07:36:24;;;;;;;4.45;2.08;;;22.00;43.40;;;;;;5112914;28;20223;-75
2022/07/18 07:38:52;;;;;;;5.47;2.25;;;22.10;42.70;;;;;;5112909;28;20288;-76
2022/07/18 07:41:19;;;;;;;4.38;1.90;;;22.20;40.00;;;;;;5113279;28;20249;-76
2022/07/18 07:43:46;;;;;;;4.20;1.85;;;22.40;39.10;;;;;;5113135;28;20196;-75
2022/07/18 07:46:12;;;;;;;3.67;2.00;;;22.60;39.30;;;;;;5112917;28;20650;-76
2022/07/18 07:48:39;;;;;;;3.83;1.85;;;22.70;40.70;;;;;;5113089;28;20196;-76
2022/07/18 07:51:06;;;;;;;4.90;1.80;;;22.90;39.20;;;;;;5112317;28;20200;-75
2022/07/18 07:53:33;;;;;;;4.13;1.90;;;23.20;38.40;;;;;;5112992;28;20192;-76
2022/07/18 07:56:01;;;;;;;5.45;1.73;;;23.40;39.10;;;;;;5112892;28;20227;-75
2022/07/18 07:58:28;;;;;;;3.00;2.00;;;23.50;35.10;;;;;;5112994;28;20680;-75
2022/07/18 08:00:55;;;;;;;2.58;1.75;;;23.80;35.20;;;;;;5112751;28;20252;-75
2022/07/18 08:03:21;;;;;;;2.83;1.55;;;23.90;33.80;;;;;;5112783;28;20601;-75
2022/07/18 08:05:49;;;;;;;5.60;1.67;;;24.20;31.30;;;;;;5112969;28;20592;-76
2022/07/18 08:08:17;;;;;;;4.10;1.83;;;24.40;28.70;;;;;;5113158;28;20195;-76
2022/07/18 08:10:44;;;;;;;4.45;2.15;;;24.70;27.60;;;;;;5113168;28;20195;-76
2022/07/18 08:13:13;;;;;;;11.35;1.70;;;24.90;27.70;;;;;;5112963;28;20229;-76
2022/07/18 08:15:40;;;;;;;3.15;1.70;;;25.10;28.30;;;;;;5112782;28;20711;-76
2022/07/18 08:18:07;;;;;;;4.20;1.55;;;25.30;26.80;;;;;;5112722;28;20248;-76
2022/07/18 08:20:34;;;;;;;5.38;1.88;;;25.40;26.50;;;;;;5112912;28;20249;-76
2022/07/18 08:23:03;;;;;;;5.82;1.80;;;25.50;26.30;;;;;;5112976;28;20196;-76
2022/07/18 08:25:33;;;;;;;4.38;1.50;;;25.70;25.70;;;;;;5112891;28;20204;-76
2022/07/18 08:28:01;;;;;;;3.42;1.52;;;25.80;24.90;;;;;;5112895;28;20196;-76
2022/07/18 08:30:30;;;;;;;3.78;1.50;;;25.80;22.80;;;;;;5112781;28;20238;-76
2022/07/18 08:32:58;;;;;;;1.73;1.40;;;25.80;22.80;;;;;;5112629;28;20253;-76
2022/07/18 08:35:25;;;;;;;2.60;1.60;;;26.10;22.60;;;;;;5111302;28;20465;-74
2022/07/18 08:37:51;;;;;;;2.15;1.30;;;26.40;22.30;;;;;;5112548;28;20268;-74
2022/07/18 08:40:18;;;;;;;1.75;1.50;;;26.50;21.70;;;;;;5112723;28;20443;-75
2022/07/18 08:42:45;;;;;;;3.60;1.60;;;26.70;22.10;;;;;;5112836;28;20196;-81
2022/07/18 08:45:12;;;;;;;1.98;1.60;;;26.90;22.20;;;;;;5112720;28;20230;-81
2022/07/18 08:47:40;;;;;;;4.00;1.42;;;27.30;22.40;;;;;;5114416;28;20200;-80
2022/07/18 08:50:08;;;;;;;1.80;1.50;;;27.50;22.80;;;;;;5115208;28;20244;-81
2022/07/18 08:52:37;;;;;;;6.40;1.40;;;27.40;22.00;;;;;;5112684;28;20203;-82
2022/07/18 08:55:06;;;;;;;3.97;1.50;;;27.70;22.10;;;;;;5112562;28;20291;-82
2022/07/18 08:57:33;;;;;;;4.35;1.67;;;27.90;21.50;;;;;;5114859;28;20269;-83
2022/07/18 09:00:00;;;;;;;2.55;1.60;;;28.00;22.10;;;;;;5118464;28;20207;-83
2022/07/18 09:02:27;;;;;;;1.98;1.50;;;28.00;21.60;;;;;;5115163;28;20200;-82
2022/07/18 09:04:55;;;;;;;3.10;1.42;;;27.70;20.70;;;;;;5121257;28;20216;-83
2022/07/18 09:07:27;;;;;;;3.10;1.58;;;27.90;21.30;;;;;;5126158;28;20192;-82
2022/07/18 09:09:57;;;;;;;2.75;1.67;;;28.10;20.20;;;;;;5124075;28;20203;-81
2022/07/18 09:12:24;;;;;;;3.08;1.60;;;28.30;19.90;;;;;;5122718;28;20269;-81
2022/07/18 09:14:51;;;;;;;3.78;1.70;;;28.50;19.90;;;;;;5123214;28;20199;-81
2022/07/18 09:17:19;;;;;;;4.57;1.80;;;28.40;18.80;;;;;;5122794;28;20280;-81
2022/07/18 09:20:00;;;;;;;2.65;1.70;;;28.10;19.20;;;;;;5121596;28;20241;-82
2022/07/18 09:22:29;;;;;;;2.50;1.80;;;28.20;19.50;;;;;;5117708;28;20229;-82
2022/07/18 09:24:59;;;;;;;3.28;1.50;;;28.30;18.80;;;;;;5116027;28;20650;-81
2022/07/18 09:27:34;;;;;;;12.10;2.30;;;28.60;19.00;;;;;;5116255;28;20206;-80
2022/07/18 09:30:12;;;;;;;3.97;1.83;;;28.90;18.60;;;;;;5116579;28;20225;-81
2022/07/18 09:32:41;;;;;;;4.05;1.90;;;29.30;18.40;;;;;;5116978;28;20207;-83
2022/07/18 09:35:11;;;;;;;3.60;1.80;;;29.70;18.80;;;;;;5116793;28;20203;-81
2022/07/18 09:37:39;;;;;;;1.98;1.65;;;30.00;18.20;;;;;;5117529;28;20762;-81
2022/07/18 09:40:15;;;;;;;3.05;1.52;;;30.30;17.90;;;;;;5118039;28;20310;-80
2022/07/18 09:42:42;;;;;;;3.95;1.60;;;30.60;17.90;;;;;;5115797;28;20252;-82
2022/07/18 09:45:09;;;;;;;1.73;1.45;;;31.10;17.60;;;;;;5116068;28;20233;-82
2022/07/18 09:47:50;;;;;;;2.72;2.05;;;31.40;17.30;;;;;;5117643;28;20196;-81
2022/07/18 09:50:24;;;;;;;3.83;1.70;;;31.70;16.70;;;;;;5117679;28;20240;-80
2022/07/18 09:53:02;;;;;;;3.17;1.60;;;31.80;16.80;;;;;;5115618;28;20260;-81
2022/07/18 09:55:29;;;;;;;3.08;1.60;;;31.90;16.10;;;;;;5115325;28;20203;-81
2022/07/18 09:58:06;;;;;;;2.80;1.80;;;31.70;15.50;;;;;;5115134;27;20223;-82
2022/07/18 10:00:35;;;;;;;4.35;1.73;;;31.70;15.70;;;;;;5115053;28;20199;-81
2022/07/18 10:03:04;;;;;;;1.92;1.55;;;31.50;15.40;;;;;;5115097;28;20196;-82
2022/07/18 10:05:34;;;;;;;2.95;1.55;;;31.70;15.60;;;;;;5114883;28;20192;-81
2022/07/18 10:08:03;;;;;;;2.20;1.35;;;32.30;15.60;;;;;;5114494;28;20191;-82
2022/07/18 10:10:31;;;;;;;2.28;1.60;;;31.50;14.80;;;;;;5114925;28;20238;-82
2022/07/18 10:13:00;;;;;;;1.33;1.23;;;30.60;15.60;;;;;;5114690;28;20192;-81
2022/07/18 10:15:28;;;;;;;3.70;1.60;;;31.20;15.10;;;;;;5114832;28;20203;-81
2022/07/18 10:17:56;;;;;;;1.65;1.40;;;31.30;14.90;;;;;;5114667;28;20220;-80
2022/07/18 10:20:29;;;;;;;1.75;1.35;;;31.70;15.40;;;;;;5114752;28;20203;-81
2022/07/18 10:23:00;;;;;;;2.83;1.90;;;32.50;15.20;;;;;;5114609;28;20456;-81
2022/07/18 10:25:26;;;;;;;2.00;1.45;;;33.20;14.70;;;;;;5114590;28;20289;-81
2022/07/18 10:27:55;;;;;;;2.92;1.60;;;33.90;14.10;;;;;;5114807;28;20203;-82
2022/07/18 10:30:32;;;;;;;5.35;1.60;;;34.00;13.60;;;;;;5114599;28;20199;-81
2022/07/18 10:32:59;;;;;;;2.25;1.55;;;33.60;13.20;;;;;;5114459;28;20726;-81
2022/07/18 10:36:00;;;;;;;1.40;1.10;;;34.20;12.90;;;;;;5114441;28;20206;-81
2022/07/18 10:38:28;;;;;;;3.67;1.60;;;34.00;13.00;;;;;;5114300;28;20685;-81
2022/07/18 10:41:13;;;;;;;3.10;1.30;;;34.30;12.60;;;;;;5114487;28;20199;-80
2022/07/18 10:43:42;;;;;;;6.30;1.33;;;33.90;12.10;;;;;;5114429;28;20195;-81
2022/07/18 10:46:11;;;;;;;4.07;1.40;;;33.70;12.30;;;;;;5114266;28;20468;-81
2022/07/18 10:48:53;;;;;;;2.65;1.45;;;32.90;12.60;;;;;;5114617;28;20198;-82
2022/07/18 10:51:20;;;;;;;2.75;1.35;;;32.80;12.80;;;;;;5114712;28;20198;-81
2022/07/18 10:54:11;;;;;;;2.75;1.60;;;33.10;12.70;;;;;;5114628;28;20588;-81
2022/07/18 10:57:07;;;;;;;2.90;1.63;;;32.50;12.70;;;;;;5115691;28;20234;-81
2022/07/18 10:59:35;;;;;;;2.15;1.55;;;34.40;12.20;;;;;;5093101;28;20227;-81
2022/07/18 11:02:05;;;;;;;1.98;1.40;;;34.40;11.70;;;;;;5115619;28;20191;-82
2022/07/18 11:04:35;;;;;;;5.22;1.60;;;33.90;11.80;;;;;;5118559;28;20191;-78
2022/07/18 11:07:05;;;;;;;1.30;1.20;;;34.80;11.70;;;;;;5115691;28;20899;-81
2022/07/18 11:09:40;;;;;;;1.60;1.40;;;34.70;11.10;;;;;;5117360;28;20221;-80
2022/07/18 11:12:22;;;;;;;1.95;1.58;;;35.50;11.30;;;;;;5116679;28;20215;-81
2022/07/18 11:15:11;;;;;;;1.85;1.40;;;37.00;10.80;;;;;;5117951;28;20638;-80
2022/07/18 11:18:04;;;;;;;2.45;1.58;;;37.30;10.50;;;;;;5118824;28;20218;-83
2022/07/18 11:20:42;;;;;;;3.78;1.60;;;38.30;9.50;;;;;;5114616;28;20202;-81
2022/07/18 11:23:21;;;;;;;2.70;1.40;;;38.00;9.50;;;;;;5115876;28;20199;-82
2022/07/18 11:25:51;;;;;;;1.73;1.50;;;38.90;9.10;;;;;;5113614;28;20557;-82
2022/07/18 11:28:19;;;;;;;2.72;1.38;;;39.80;8.30;;;;;;5113883;28;20198;-81
2022/07/18 11:30:46;;;;;;;2.83;1.50;;;39.60;7.80;;;;;;5113553;28;20191;-83
2022/07/18 11:33:23;;;;;;;3.00;1.77;;;39.70;7.70;;;;;;5113642;28;20719;-82
2022/07/18 11:35:50;;;;;;;2.78;1.67;;;39.50;7.70;;;;;;5113427;28;20562;-83
2022/07/18 11:38:18;;;;;;;5.20;1.75;;;39.70;8.00;;;;;;5113305;28;20765;-81
2022/07/18 11:40:51;;;;;;;2.38;1.50;;;39.50;7.60;;;;;;5113754;28;20252;-84
2022/07/18 11:43:22;;;;;;;2.55;1.30;;;40.20;7.70;;;;;;5113847;28;20195;-84
2022/07/18 11:45:49;;;;;;;3.00;1.40;;;39.80;7.40;;;;;;5113851;28;20224;-83
2022/07/18 11:48:22;;;;;;;1.83;1.27;;;40.20;7.10;;;;;;5113463;28;20203;-83
2022/07/18 11:50:49;;;;;;;4.23;1.70;;;41.40;7.20;;;;;;5113151;28;20521;-82
2022/07/18 11:53:16;;;;;;;3.22;1.40;;;42.40;7.00;;;;;;5113386;28;20923;-83
2022/07/18 11:55:43;;;;;;;2.85;1.42;;;42.60;5.80;;;;;;5113223;28;20206;-82
2022/07/18 11:58:12;;;;;;;3.60;1.60;;;42.70;6.40;;;;;;5112948;28;20222;-81
2022/07/18 12:00:39;;;;;;;3.42;1.70;;;43.10;6.00;;;;;;5113035;28;20264;-81
2022/07/18 12:03:11;;;;;;;2.78;1.80;;;42.70;6.10;;;;;;5113130;28;20604;-84
2022/07/18 12:05:39;;;;;;;3.35;1.80;;;42.40;5.90;;;;;;5113772;28;20256;-82
2022/07/18 12:08:25;;;;;;;6.18;1.80;;;42.40;6.10;;;;;;5113134;28;20608;-83
2022/07/18 12:11:10;;;;;;;1.98;1.63;;;43.00;6.10;;;;;;5113356;28;20201;-82
2022/07/18 12:13:47;;;;;;;2.40;1.80;;;43.30;5.30;;;;;;5112792;28;20206;-83
2022/07/18 12:16:31;;;;;;;2.97;1.60;;;43.00;4.70;;;;;;5113356;28;20232;-82
2022/07/18 12:19:01;;;;;;;1.40;1.30;;;41.70;5.20;;;;;;5113004;28;20248;-82
2022/07/18 12:21:43;;;;;;;3.30;1.73;;;40.20;5.60;;;;;;5113002;28;20658;-83
2022/07/18 12:24:27;;;;;;;2.55;1.60;;;40.00;5.70;;;;;;5113123;28;20191;-82
2022/07/18 12:27:25;;;;;;;2.35;1.50;;;39.60;6.60;;;;;;5112840;28;20690;-82
2022/07/18 12:30:08;;;;;;;3.03;1.33;;;39.40;6.70;;;;;;5113061;28;20203;-83
2022/07/18 12:32:46;;;;;;;1.70;1.50;;;40.00;6.30;;;;;;5112922;28;20592;-81
2022/07/18 12:35:16;;;;;;;5.40;1.52;;;40.40;5.90;;;;;;5113635;28;20195;-85
2022/07/18 12:37:52;;;;;;;3.15;1.67;;;40.40;5.90;;;;;;5117365;28;20219;-83
2022/07/18 12:40:19;;;;;;;2.20;1.50;;;41.60;5.50;;;;;;5116822;28;20270;-82
2022/07/18 12:42:46;;;;;;;2.13;1.70;;;40.80;5.50;;;;;;5116665;28;20256;-83
2022/07/18 12:45:15;;;;;;;5.10;1.77;;;39.10;6.10;;;;;;5116887;28;20286;-85
2022/07/18 12:47:42;;;;;;;1.60;1.50;;;39.60;6.50;;;;;;5116905;28;20252;-81
2022/07/18 12:50:09;;;;;;;2.88;1.33;;;40.20;6.30;;;;;;5116598;28;20696;-83
2022/07/18 12:52:35;;;;;;;2.25;1.58;;;40.70;5.90;;;;;;5116839;28;20199;-83
2022/07/18 12:55:02;;;;;;;1.85;1.50;;;41.10;5.70;;;;;;5116650;28;20199;-83